sensor_id;sensor_type;location;lat;lon;timestamp;temperature;humidity
20726;DHT22;10524;48.132;8.518;2023-03-17T00:00:44;-0.90;99.90
20726;DHT22;10524;48.132;8.518;2023-03-17T00:03:22;-1.00;99.90
20726;DHT22;10524;48.132;8.518;2023-03-17T00:05:50;-0.90;99.90
20726;DHT22;10524;48.132;8.518;2023-03-17T00:08:26;-0.90;99.90
20726;DHT22;10524;48.132;8.518;2023-03-17T00:10:53;-0.90;99.90
20726;DHT22;10524;48.132;8.518;2023-03-17T00:13:19;-0.90;99.90
20726;DHT22;10524;48.132;8.518;2023-03-17T00:15:47;-0.90;99.90
20726;DHT22;10524;48.132;8.518;2023-03-17T00:18:17;-0.80;99.90
20726;DHT22;10524;48.132;8.518;2023-03-17T00:20:44;-0.80;99.90
20726;DHT22;10524;48.132;8.518;2023-03-17T00:23:17;-0.90;99.90
20726;DHT22;10524;48.132;8.518;2023-03-17T00:25:43;-0.80;99.90
20726;DHT22;10524;48.132;8.518;2023-03-17T00:28:21;-0.80;99.90
20726;DHT22;10524;48.132;8.518;2023-03-17T00:30:48;-0.80;99.90
20726;DHT22;10524;48.132;8.518;2023-03-17T00:33:15;-0.90;99.90
20726;DHT22;10524;48.132;8.518;2023-03-17T00:35:42;-0.90;99.90
20726;DHT22;10524;48.132;8.518;2023-03-17T00:38:19;-0.90;99.90
20726;DHT22;10524;48.132;8.518;2023-03-17T00:40:46;-0.80;99.90
20726;DHT22;10524;48.132;8.518;2023-03-17T00:43:12;-0.80;99.90
20726;DHT22;10524;48.132;8.518;2023-03-17T00:45:42;-0.80;99.90
20726;DHT22;10524;48.132;8.518;2023-03-17T00:48:17;-0.70;99.90
20726;DHT22;10524;48.132;8.518;2023-03-17T00:50:44;-0.80;99.90
20726;DHT22;10524;48.132;8.518;2023-03-17T00:53:12;-0.70;99.90
20726;DHT22;10524;48.132;8.518;2023-03-17T00:55:39;-0.70;99.90
20726;DHT22;10524;48.132;8.518;2023-03-17T00:58:30;-0.70;99.90
20726;DHT22;10524;48.132;8.518;2023-03-17T01:00:57;-0.60;99.90
20726;DHT22;10524;48.132;8.518;2023-03-17T01:03:24;-0.60;99.90
20726;DHT22;10524;48.132;8.518;2023-03-17T01:05:51;-0.50;99.90
20726;DHT22;10524;48.132;8.518;2023-03-17T01:08:19;-0.40;99.90
20726;DHT22;10524;48.132;8.518;2023-03-17T01:10:46;-0.30;99.90
20726;DHT22;10524;48.132;8.518;2023-03-17T01:13:12;-0.30;99.90
20726;DHT22;10524;48.132;8.518;2023-03-17T01:15:45;-0.30;99.90
20726;DHT22;10524;48.132;8.518;2023-03-17T01:18:12;-0.30;99.90
20726;DHT22;10524;48.132;8.518;2023-03-17T01:20:39;-0.30;99.90
20726;DHT22;10524;48.132;8.518;2023-03-17T01:23:05;-0.30;99.90
20726;DHT22;10524;48.132;8.518;2023-03-17T01:25:31;-0.30;99.90
20726;DHT22;10524;48.132;8.518;2023-03-17T01:27:58;-0.30;99.90
20726;DHT22;10524;48.132;8.518;2023-03-17T01:30:36;-0.30;99.90
20726;DHT22;10524;48.132;8.518;2023-03-17T01:33:03;-0.30;99.90
20726;DHT22;10524;48.132;8.518;2023-03-17T01:35:31;-0.30;99.90
20726;DHT22;10524;48.132;8.518;2023-03-17T01:37:58;-0.30;99.90
20726;DHT22;10524;48.132;8.518;2023-03-17T01:40:26;-0.30;99.90
20726;DHT22;10524;48.132;8.518;2023-03-17T01:42:59;-0.20;99.90
20726;DHT22;10524;48.132;8.518;2023-03-17T01:48:45;0.00;99.90
20726;DHT22;10524;48.132;8.518;2023-03-17T01:51:16;0.30;99.90
20726;DHT22;10524;48.132;8.518;2023-03-17T01:53:44;0.50;99.90
20726;DHT22;10524;48.132;8.518;2023-03-17T01:56:13;0.40;99.90
20726;DHT22;10524;48.132;8.518;2023-03-17T01:58:39;0.30;99.90
20726;DHT22;10524;48.132;8.518;2023-03-17T02:01:05;0.30;99.90
20726;DHT22;10524;48.132;8.518;2023-03-17T02:03:32;0.20;99.90
20726;DHT22;10524;48.132;8.518;2023-03-17T02:05:59;0.20;99.90
20726;DHT22;10524;48.132;8.518;2023-03-17T02:08:26;0.10;99.90
20726;DHT22;10524;48.132;8.518;2023-03-17T02:10:52;0.20;99.90
20726;DHT22;10524;48.132;8.518;2023-03-17T02:13:18;0.10;99.90
20726;DHT22;10524;48.132;8.518;2023-03-17T02:15:49;0.10;99.90
20726;DHT22;10524;48.132;8.518;2023-03-17T02:18:18;0.10;99.90
20726;DHT22;10524;48.132;8.518;2023-03-17T02:23:19;-0.20;99.90
20726;DHT22;10524;48.132;8.518;2023-03-17T02:25:50;-0.30;99.90
20726;DHT22;10524;48.132;8.518;2023-03-17T02:28:22;-0.40;99.90
20726;DHT22;10524;48.132;8.518;2023-03-17T02:30:49;-0.50;99.90
20726;DHT22;10524;48.132;8.518;2023-03-17T02:33:14;-0.40;99.90
20726;DHT22;10524;48.132;8.518;2023-03-17T02:35:40;-0.30;99.90
20726;DHT22;10524;48.132;8.518;2023-03-17T02:38:06;-0.20;99.90
20726;DHT22;10524;48.132;8.518;2023-03-17T02:40:32;-0.10;99.90
20726;DHT22;10524;48.132;8.518;2023-03-17T02:42:58;0.00;99.90
20726;DHT22;10524;48.132;8.518;2023-03-17T02:45:24;0.00;99.90
20726;DHT22;10524;48.132;8.518;2023-03-17T02:47:49;0.10;99.90
20726;DHT22;10524;48.132;8.518;2023-03-17T02:50:25;0.10;99.90
20726;DHT22;10524;48.132;8.518;2023-03-17T02:52:53;0.10;99.90
20726;DHT22;10524;48.132;8.518;2023-03-17T02:55:19;0.10;99.90
20726;DHT22;10524;48.132;8.518;2023-03-17T02:57:45;0.10;99.90
20726;DHT22;10524;48.132;8.518;2023-03-17T03:00:11;0.20;99.90
20726;DHT22;10524;48.132;8.518;2023-03-17T03:02:39;0.20;99.90
20726;DHT22;10524;48.132;8.518;2023-03-17T03:05:05;0.30;99.90
20726;DHT22;10524;48.132;8.518;2023-03-17T03:07:33;0.40;99.90
20726;DHT22;10524;48.132;8.518;2023-03-17T03:09:59;0.50;99.90
20726;DHT22;10524;48.132;8.518;2023-03-17T03:12:25;0.50;99.90
20726;DHT22;10524;48.132;8.518;2023-03-17T03:14:50;0.60;99.90
20726;DHT22;10524;48.132;8.518;2023-03-17T03:17:16;0.60;99.90
20726;DHT22;10524;48.132;8.518;2023-03-17T03:19:42;0.40;99.90
20726;DHT22;10524;48.132;8.518;2023-03-17T03:22:08;0.30;99.90
20726;DHT22;10524;48.132;8.518;2023-03-17T03:24:34;0.20;99.90
20726;DHT22;10524;48.132;8.518;2023-03-17T03:27:00;0.10;99.90
20726;DHT22;10524;48.132;8.518;2023-03-17T03:29:25;0.10;99.90
20726;DHT22;10524;48.132;8.518;2023-03-17T03:31:51;0.00;99.90
20726;DHT22;10524;48.132;8.518;2023-03-17T03:34:17;-0.20;99.90
20726;DHT22;10524;48.132;8.518;2023-03-17T03:36:42;-0.20;99.90
20726;DHT22;10524;48.132;8.518;2023-03-17T03:39:08;-0.20;99.90
20726;DHT22;10524;48.132;8.518;2023-03-17T03:41:34;-0.30;99.90
20726;DHT22;10524;48.132;8.518;2023-03-17T03:44:00;-0.40;99.90
20726;DHT22;10524;48.132;8.518;2023-03-17T03:46:26;-0.60;99.90
20726;DHT22;10524;48.132;8.518;2023-03-17T03:48:53;-0.60;99.90
20726;DHT22;10524;48.132;8.518;2023-03-17T03:51:19;-0.50;99.90
20726;DHT22;10524;48.132;8.518;2023-03-17T03:53:44;-0.50;99.90
20726;DHT22;10524;48.132;8.518;2023-03-17T03:56:11;-0.50;99.90
20726;DHT22;10524;48.132;8.518;2023-03-17T03:58:36;-0.60;99.90
20726;DHT22;10524;48.132;8.518;2023-03-17T04:01:07;-0.80;99.90
20726;DHT22;10524;48.132;8.518;2023-03-17T04:03:34;-0.80;99.90
20726;DHT22;10524;48.132;8.518;2023-03-17T04:06:00;-0.90;99.90
20726;DHT22;10524;48.132;8.518;2023-03-17T04:08:25;-1.10;99.90
20726;DHT22;10524;48.132;8.518;2023-03-17T04:10:51;-1.10;99.90
20726;DHT22;10524;48.132;8.518;2023-03-17T04:13:17;-1.20;99.90
20726;DHT22;10524;48.132;8.518;2023-03-17T04:15:43;-1.10;99.90
20726;DHT22;10524;48.132;8.518;2023-03-17T04:18:08;-1.20;99.90
20726;DHT22;10524;48.132;8.518;2023-03-17T04:20:34;-1.30;99.90
20726;DHT22;10524;48.132;8.518;2023-03-17T04:23:00;-1.40;99.90
20726;DHT22;10524;48.132;8.518;2023-03-17T04:25:26;-1.40;99.90
20726;DHT22;10524;48.132;8.518;2023-03-17T04:27:52;-1.40;99.90
20726;DHT22;10524;48.132;8.518;2023-03-17T04:30:18;-1.50;99.90
20726;DHT22;10524;48.132;8.518;2023-03-17T04:32:43;-1.60;99.90
20726;DHT22;10524;48.132;8.518;2023-03-17T04:35:27;-1.60;99.90
20726;DHT22;10524;48.132;8.518;2023-03-17T04:37:53;-1.70;99.90
20726;DHT22;10524;48.132;8.518;2023-03-17T04:40:19;-1.70;99.90
20726;DHT22;10524;48.132;8.518;2023-03-17T04:42:45;-1.70;99.90
20726;DHT22;10524;48.132;8.518;2023-03-17T04:45:12;-1.70;99.90
20726;DHT22;10524;48.132;8.518;2023-03-17T04:47:40;-1.70;99.90
20726;DHT22;10524;48.132;8.518;2023-03-17T04:50:07;-1.70;99.90
20726;DHT22;10524;48.132;8.518;2023-03-17T04:52:34;-1.70;99.90
20726;DHT22;10524;48.132;8.518;2023-03-17T04:55:00;-1.70;99.90
20726;DHT22;10524;48.132;8.518;2023-03-17T04:57:26;-1.60;99.90
20726;DHT22;10524;48.132;8.518;2023-03-17T04:59:52;-1.40;99.90
20726;DHT22;10524;48.132;8.518;2023-03-17T05:02:18;-1.40;99.90
20726;DHT22;10524;48.132;8.518;2023-03-17T05:04:44;-1.40;99.90
20726;DHT22;10524;48.132;8.518;2023-03-17T05:07:11;-1.40;99.90
20726;DHT22;10524;48.132;8.518;2023-03-17T05:09:37;-1.40;99.90
20726;DHT22;10524;48.132;8.518;2023-03-17T05:12:03;-1.40;99.90
20726;DHT22;10524;48.132;8.518;2023-03-17T05:14:28;-1.50;99.90
20726;DHT22;10524;48.132;8.518;2023-03-17T05:16:54;-1.50;99.90
20726;DHT22;10524;48.132;8.518;2023-03-17T05:19:20;-1.50;99.90
20726;DHT22;10524;48.132;8.518;2023-03-17T05:21:46;-1.60;99.90
20726;DHT22;10524;48.132;8.518;2023-03-17T05:24:12;-1.60;99.90
20726;DHT22;10524;48.132;8.518;2023-03-17T05:26:38;-1.70;99.90
20726;DHT22;10524;48.132;8.518;2023-03-17T05:29:04;-1.60;99.90
20726;DHT22;10524;48.132;8.518;2023-03-17T05:31:30;-1.60;99.90
20726;DHT22;10524;48.132;8.518;2023-03-17T05:33:56;-1.60;99.90
20726;DHT22;10524;48.132;8.518;2023-03-17T05:36:22;-1.60;99.90
20726;DHT22;10524;48.132;8.518;2023-03-17T05:38:48;-1.60;99.90
20726;DHT22;10524;48.132;8.518;2023-03-17T05:41:14;-1.60;99.90
20726;DHT22;10524;48.132;8.518;2023-03-17T05:43:40;-1.50;99.90
20726;DHT22;10524;48.132;8.518;2023-03-17T05:46:06;-1.50;99.90
20726;DHT22;10524;48.132;8.518;2023-03-17T05:48:32;-1.50;99.90
20726;DHT22;10524;48.132;8.518;2023-03-17T05:50:58;-1.40;99.90
20726;DHT22;10524;48.132;8.518;2023-03-17T05:53:24;-1.30;99.90
20726;DHT22;10524;48.132;8.518;2023-03-17T05:55:50;-1.30;99.90
20726;DHT22;10524;48.132;8.518;2023-03-17T05:58:17;-1.20;99.90
20726;DHT22;10524;48.132;8.518;2023-03-17T06:00:43;-1.10;99.90
20726;DHT22;10524;48.132;8.518;2023-03-17T06:03:09;-0.80;99.90
20726;DHT22;10524;48.132;8.518;2023-03-17T06:05:35;-0.40;99.90
20726;DHT22;10524;48.132;8.518;2023-03-17T06:08:02;0.00;99.90
20726;DHT22;10524;48.132;8.518;2023-03-17T06:10:29;0.50;99.90
20726;DHT22;10524;48.132;8.518;2023-03-17T06:12:55;1.00;99.90
20726;DHT22;10524;48.132;8.518;2023-03-17T06:15:21;1.40;99.90
20726;DHT22;10524;48.132;8.518;2023-03-17T06:17:47;1.80;99.90
20726;DHT22;10524;48.132;8.518;2023-03-17T06:20:13;2.40;99.90
20726;DHT22;10524;48.132;8.518;2023-03-17T06:22:39;3.10;99.90
20726;DHT22;10524;48.132;8.518;2023-03-17T06:25:05;3.80;99.90
20726;DHT22;10524;48.132;8.518;2023-03-17T06:27:31;4.80;99.90
20726;DHT22;10524;48.132;8.518;2023-03-17T06:29:57;5.80;99.90
20726;DHT22;10524;48.132;8.518;2023-03-17T06:32:24;7.00;99.90
20726;DHT22;10524;48.132;8.518;2023-03-17T06:34:50;8.20;99.90
20726;DHT22;10524;48.132;8.518;2023-03-17T06:37:17;9.20;99.90
20726;DHT22;10524;48.132;8.518;2023-03-17T06:39:43;10.00;99.90
20726;DHT22;10524;48.132;8.518;2023-03-17T06:42:09;10.40;99.90
20726;DHT22;10524;48.132;8.518;2023-03-17T06:44:35;10.80;99.90
20726;DHT22;10524;48.132;8.518;2023-03-17T06:47:01;10.70;99.90
20726;DHT22;10524;48.132;8.518;2023-03-17T06:49:27;9.50;99.90
20726;DHT22;10524;48.132;8.518;2023-03-17T06:51:53;9.40;99.90
20726;DHT22;10524;48.132;8.518;2023-03-17T06:54:19;9.90;99.90
20726;DHT22;10524;48.132;8.518;2023-03-17T06:56:46;10.10;99.90
20726;DHT22;10524;48.132;8.518;2023-03-17T06:59:12;9.80;99.90
20726;DHT22;10524;48.132;8.518;2023-03-17T07:01:38;9.70;99.90
20726;DHT22;10524;48.132;8.518;2023-03-17T07:04:04;9.70;99.90
20726;DHT22;10524;48.132;8.518;2023-03-17T07:06:30;9.60;99.90
20726;DHT22;10524;48.132;8.518;2023-03-17T07:08:56;9.80;99.90
20726;DHT22;10524;48.132;8.518;2023-03-17T07:11:22;9.90;99.90
20726;DHT22;10524;48.132;8.518;2023-03-17T07:13:48;9.90;99.90
20726;DHT22;10524;48.132;8.518;2023-03-17T07:16:14;9.90;99.90
20726;DHT22;10524;48.132;8.518;2023-03-17T07:18:41;9.70;99.90
20726;DHT22;10524;48.132;8.518;2023-03-17T07:21:07;9.80;99.90
20726;DHT22;10524;48.132;8.518;2023-03-17T07:23:34;10.30;99.90
20726;DHT22;10524;48.132;8.518;2023-03-17T07:25:59;11.40;99.90
20726;DHT22;10524;48.132;8.518;2023-03-17T07:28:26;13.10;99.90
20726;DHT22;10524;48.132;8.518;2023-03-17T07:30:51;14.20;99.90
20726;DHT22;10524;48.132;8.518;2023-03-17T07:33:18;15.10;99.90
20726;DHT22;10524;48.132;8.518;2023-03-17T07:35:47;16.30;99.90
20726;DHT22;10524;48.132;8.518;2023-03-17T07:38:14;17.40;99.90
20726;DHT22;10524;48.132;8.518;2023-03-17T07:40:42;18.20;99.90
20726;DHT22;10524;48.132;8.518;2023-03-17T07:43:08;17.50;99.70
20726;DHT22;10524;48.132;8.518;2023-03-17T07:45:33;16.60;99.90
20726;DHT22;10524;48.132;8.518;2023-03-17T07:48:01;16.50;99.90
20726;DHT22;10524;48.132;8.518;2023-03-17T07:50:27;16.40;99.90
20726;DHT22;10524;48.132;8.518;2023-03-17T07:52:53;15.80;99.90
20726;DHT22;10524;48.132;8.518;2023-03-17T07:55:19;15.50;99.90
20726;DHT22;10524;48.132;8.518;2023-03-17T07:57:45;15.40;99.90
20726;DHT22;10524;48.132;8.518;2023-03-17T08:00:13;15.00;99.90
20726;DHT22;10524;48.132;8.518;2023-03-17T08:02:39;14.30;99.90
20726;DHT22;10524;48.132;8.518;2023-03-17T08:05:06;13.70;99.90
20726;DHT22;10524;48.132;8.518;2023-03-17T08:07:35;13.00;99.90
20726;DHT22;10524;48.132;8.518;2023-03-17T08:10:05;12.90;99.90
20726;DHT22;10524;48.132;8.518;2023-03-17T08:12:32;15.00;99.90
20726;DHT22;10524;48.132;8.518;2023-03-17T08:14:58;16.10;99.90
20726;DHT22;10524;48.132;8.518;2023-03-17T08:17:23;16.00;99.90
20726;DHT22;10524;48.132;8.518;2023-03-17T08:19:53;15.30;99.90
20726;DHT22;10524;48.132;8.518;2023-03-17T08:22:18;15.00;99.90
20726;DHT22;10524;48.132;8.518;2023-03-17T08:24:44;15.30;99.90
20726;DHT22;10524;48.132;8.518;2023-03-17T08:27:10;14.90;99.90
20726;DHT22;10524;48.132;8.518;2023-03-17T08:29:36;13.80;99.90
20726;DHT22;10524;48.132;8.518;2023-03-17T08:32:01;13.20;99.90
20726;DHT22;10524;48.132;8.518;2023-03-17T08:34:28;12.80;99.90
20726;DHT22;10524;48.132;8.518;2023-03-17T08:36:53;12.60;99.90
20726;DHT22;10524;48.132;8.518;2023-03-17T08:39:19;12.20;99.90
20726;DHT22;10524;48.132;8.518;2023-03-17T08:41:45;11.90;99.90
20726;DHT22;10524;48.132;8.518;2023-03-17T08:44:11;11.80;99.90
20726;DHT22;10524;48.132;8.518;2023-03-17T08:46:39;11.80;99.90
20726;DHT22;10524;48.132;8.518;2023-03-17T08:49:05;11.60;99.90
20726;DHT22;10524;48.132;8.518;2023-03-17T08:51:34;11.50;99.90
20726;DHT22;10524;48.132;8.518;2023-03-17T08:54:01;11.40;99.90
20726;DHT22;10524;48.132;8.518;2023-03-17T08:56:27;11.20;99.90
20726;DHT22;10524;48.132;8.518;2023-03-17T08:58:54;11.30;99.90
20726;DHT22;10524;48.132;8.518;2023-03-17T09:01:20;11.30;99.90
20726;DHT22;10524;48.132;8.518;2023-03-17T09:03:47;11.40;99.90
20726;DHT22;10524;48.132;8.518;2023-03-17T09:06:14;11.80;99.90
20726;DHT22;10524;48.132;8.518;2023-03-17T09:08:41;12.00;99.90
20726;DHT22;10524;48.132;8.518;2023-03-17T09:11:17;12.10;99.90
20726;DHT22;10524;48.132;8.518;2023-03-17T09:13:45;12.40;99.90
20726;DHT22;10524;48.132;8.518;2023-03-17T09:16:12;12.60;99.90
20726;DHT22;10524;48.132;8.518;2023-03-17T09:18:39;13.00;99.90
20726;DHT22;10524;48.132;8.518;2023-03-17T09:21:06;13.90;99.90
20726;DHT22;10524;48.132;8.518;2023-03-17T09:23:31;15.40;99.90
20726;DHT22;10524;48.132;8.518;2023-03-17T09:25:58;15.50;99.90
20726;DHT22;10524;48.132;8.518;2023-03-17T09:28:24;16.60;99.90
20726;DHT22;10524;48.132;8.518;2023-03-17T09:30:50;17.80;99.90
20726;DHT22;10524;48.132;8.518;2023-03-17T09:33:17;20.30;99.90
20726;DHT22;10524;48.132;8.518;2023-03-17T09:35:43;20.60;98.80
20726;DHT22;10524;48.132;8.518;2023-03-17T09:38:09;20.90;98.60
20726;DHT22;10524;48.132;8.518;2023-03-17T09:40:43;21.90;97.90
20726;DHT22;10524;48.132;8.518;2023-03-17T09:43:54;22.90;97.00
20726;DHT22;10524;48.132;8.518;2023-03-17T09:49:06;21.00;97.60
20726;DHT22;10524;48.132;8.518;2023-03-17T09:51:33;21.70;96.70
20726;DHT22;10524;48.132;8.518;2023-03-17T09:54:24;20.70;96.90
20726;DHT22;10524;48.132;8.518;2023-03-17T09:56:58;20.80;97.60
20726;DHT22;10524;48.132;8.518;2023-03-17T09:59:33;20.40;98.20
20726;DHT22;10524;48.132;8.518;2023-03-17T10:02:00;21.50;97.50
20726;DHT22;10524;48.132;8.518;2023-03-17T10:04:26;22.50;96.70
20726;DHT22;10524;48.132;8.518;2023-03-17T10:07:01;21.60;96.90
20726;DHT22;10524;48.132;8.518;2023-03-17T10:09:56;21.70;97.80
20726;DHT22;10524;48.132;8.518;2023-03-17T10:15:17;22.40;95.90
20726;DHT22;10524;48.132;8.518;2023-03-17T10:17:41;22.10;96.20
20726;DHT22;10524;48.132;8.518;2023-03-17T10:23:00;22.20;96.20
20726;DHT22;10524;48.132;8.518;2023-03-17T10:25:30;20.90;96.80
20726;DHT22;10524;48.132;8.518;2023-03-17T10:27:57;20.60;97.60
20726;DHT22;10524;48.132;8.518;2023-03-17T10:30:25;20.30;98.00
20726;DHT22;10524;48.132;8.518;2023-03-17T10:32:53;21.00;98.20
20726;DHT22;10524;48.132;8.518;2023-03-17T10:35:22;20.10;97.70
20726;DHT22;10524;48.132;8.518;2023-03-17T10:37:48;20.40;98.70
20726;DHT22;10524;48.132;8.518;2023-03-17T10:40:23;20.00;98.40
20726;DHT22;10524;48.132;8.518;2023-03-17T10:43:01;19.80;98.30
20726;DHT22;10524;48.132;8.518;2023-03-17T10:45:33;20.80;97.70
20726;DHT22;10524;48.132;8.518;2023-03-17T10:48:01;21.20;97.40
20726;DHT22;10524;48.132;8.518;2023-03-17T10:50:34;21.70;96.90
20726;DHT22;10524;48.132;8.518;2023-03-17T10:56:05;22.10;96.10
20726;DHT22;10524;48.132;8.518;2023-03-17T11:01:35;21.90;96.00
20726;DHT22;10524;48.132;8.518;2023-03-17T11:04:01;21.80;95.60
20726;DHT22;10524;48.132;8.518;2023-03-17T11:06:40;20.60;95.10
20726;DHT22;10524;48.132;8.518;2023-03-17T11:09:14;19.50;96.40
20726;DHT22;10524;48.132;8.518;2023-03-17T11:12:03;19.00;96.40
20726;DHT22;10524;48.132;8.518;2023-03-17T11:14:29;19.40;97.00
20726;DHT22;10524;48.132;8.518;2023-03-17T11:17:01;20.40;96.80
20726;DHT22;10524;48.132;8.518;2023-03-17T11:19:34;21.10;96.20
20726;DHT22;10524;48.132;8.518;2023-03-17T11:22:24;21.30;95.40
20726;DHT22;10524;48.132;8.518;2023-03-17T11:25:04;22.30;94.80
20726;DHT22;10524;48.132;8.518;2023-03-17T11:27:37;23.40;94.40
20726;DHT22;10524;48.132;8.518;2023-03-17T11:35:43;22.50;93.00
20726;DHT22;10524;48.132;8.518;2023-03-17T11:51:33;22.50;91.60
20726;DHT22;10524;48.132;8.518;2023-03-17T11:56:41;22.20;91.30
20726;DHT22;10524;48.132;8.518;2023-03-17T11:59:24;22.40;89.70
20726;DHT22;10524;48.132;8.518;2023-03-17T12:04:49;21.60;90.60
20726;DHT22;10524;48.132;8.518;2023-03-17T12:07:42;21.50;91.80
20726;DHT22;10524;48.132;8.518;2023-03-17T12:15:47;21.00;91.70
20726;DHT22;10524;48.132;8.518;2023-03-17T12:18:26;20.80;91.90
20726;DHT22;10524;48.132;8.518;2023-03-17T12:21:19;21.20;92.10
20726;DHT22;10524;48.132;8.518;2023-03-17T12:23:57;21.90;91.00
20726;DHT22;10524;48.132;8.518;2023-03-17T12:26:35;21.30;90.60
20726;DHT22;10524;48.132;8.518;2023-03-17T12:29:08;20.80;90.90
20726;DHT22;10524;48.132;8.518;2023-03-17T12:31:38;20.80;90.50
20726;DHT22;10524;48.132;8.518;2023-03-17T12:34:09;20.60;90.40
20726;DHT22;10524;48.132;8.518;2023-03-17T12:36:40;20.40;90.50
20726;DHT22;10524;48.132;8.518;2023-03-17T12:39:07;20.20;90.00
20726;DHT22;10524;48.132;8.518;2023-03-17T12:42:00;20.20;90.30
20726;DHT22;10524;48.132;8.518;2023-03-17T12:47:35;20.70;90.20
20726;DHT22;10524;48.132;8.518;2023-03-17T12:55:23;21.50;91.00
20726;DHT22;10524;48.132;8.518;2023-03-17T13:00:56;21.70;91.30
20726;DHT22;10524;48.132;8.518;2023-03-17T13:03:29;22.00;88.80
20726;DHT22;10524;48.132;8.518;2023-03-17T13:06:05;21.30;87.00
20726;DHT22;10524;48.132;8.518;2023-03-17T13:08:38;20.60;88.80
20726;DHT22;10524;48.132;8.518;2023-03-17T13:16:32;23.80;86.10
20726;DHT22;10524;48.132;8.518;2023-03-17T13:27:11;21.80;88.30
20726;DHT22;10524;48.132;8.518;2023-03-17T13:29:46;22.00;89.20
20726;DHT22;10524;48.132;8.518;2023-03-17T13:34:48;21.60;90.10
20726;DHT22;10524;48.132;8.518;2023-03-17T13:40:07;20.80;89.90
20726;DHT22;10524;48.132;8.518;2023-03-17T13:45:42;19.90;87.70
20726;DHT22;10524;48.132;8.518;2023-03-17T13:56:53;20.20;91.00
20726;DHT22;10524;48.132;8.518;2023-03-17T13:59:56;20.00;90.70
20726;DHT22;10524;48.132;8.518;2023-03-17T14:02:24;19.60;91.30
20726;DHT22;10524;48.132;8.518;2023-03-17T14:05:00;19.40;92.10
20726;DHT22;10524;48.132;8.518;2023-03-17T14:08:20;19.40;92.50
20726;DHT22;10524;48.132;8.518;2023-03-17T14:10:27;19.00;91.20
20726;DHT22;10524;48.132;8.518;2023-03-17T14:16:04;17.80;92.10
20726;DHT22;10524;48.132;8.518;2023-03-17T14:18:54;18.00;92.60
20726;DHT22;10524;48.132;8.518;2023-03-17T14:21:29;18.00;92.00
20726;DHT22;10524;48.132;8.518;2023-03-17T14:23:57;17.80;92.20
20726;DHT22;10524;48.132;8.518;2023-03-17T14:26:28;17.50;92.30
20726;DHT22;10524;48.132;8.518;2023-03-17T14:28:58;17.10;93.00
20726;DHT22;10524;48.132;8.518;2023-03-17T14:31:26;17.00;93.50
20726;DHT22;10524;48.132;8.518;2023-03-17T14:33:58;17.10;94.10
20726;DHT22;10524;48.132;8.518;2023-03-17T14:36:25;16.90;94.40
20726;DHT22;10524;48.132;8.518;2023-03-17T14:38:56;16.90;94.70
20726;DHT22;10524;48.132;8.518;2023-03-17T14:41:24;16.90;94.70
20726;DHT22;10524;48.132;8.518;2023-03-17T14:43:51;16.90;94.90
20726;DHT22;10524;48.132;8.518;2023-03-17T14:49:16;16.10;95.70
20726;DHT22;10524;48.132;8.518;2023-03-17T14:51:43;16.10;96.30
20726;DHT22;10524;48.132;8.518;2023-03-17T14:54:17;16.10;96.60
20726;DHT22;10524;48.132;8.518;2023-03-17T14:56:51;16.10;96.70
20726;DHT22;10524;48.132;8.518;2023-03-17T14:59:32;16.00;96.80
20726;DHT22;10524;48.132;8.518;2023-03-17T15:05:00;16.00;96.80
20726;DHT22;10524;48.132;8.518;2023-03-17T15:07:38;16.00;96.30
20726;DHT22;10524;48.132;8.518;2023-03-17T15:10:12;15.90;96.60
20726;DHT22;10524;48.132;8.518;2023-03-17T15:12:38;16.00;96.70
20726;DHT22;10524;48.132;8.518;2023-03-17T15:15:13;15.80;97.30
20726;DHT22;10524;48.132;8.518;2023-03-17T15:17:42;15.90;96.90
20726;DHT22;10524;48.132;8.518;2023-03-17T15:20:17;15.90;97.40
20726;DHT22;10524;48.132;8.518;2023-03-17T15:22:48;15.80;97.30
20726;DHT22;10524;48.132;8.518;2023-03-17T15:25:32;15.70;97.40
20726;DHT22;10524;48.132;8.518;2023-03-17T15:27:58;15.50;97.80
20726;DHT22;10524;48.132;8.518;2023-03-17T15:30:25;15.40;97.60
20726;DHT22;10524;48.132;8.518;2023-03-17T15:32:59;15.30;98.10
20726;DHT22;10524;48.132;8.518;2023-03-17T15:35:26;15.20;97.90
20726;DHT22;10524;48.132;8.518;2023-03-17T15:37:52;15.20;98.40
20726;DHT22;10524;48.132;8.518;2023-03-17T15:40:18;15.10;98.80
20726;DHT22;10524;48.132;8.518;2023-03-17T15:42:45;15.10;98.50
20726;DHT22;10524;48.132;8.518;2023-03-17T15:45:14;15.00;98.40
20726;DHT22;10524;48.132;8.518;2023-03-17T15:47:41;15.00;98.10
20726;DHT22;10524;48.132;8.518;2023-03-17T15:50:19;15.00;98.20
20726;DHT22;10524;48.132;8.518;2023-03-17T15:52:46;15.00;98.50
20726;DHT22;10524;48.132;8.518;2023-03-17T15:55:19;14.80;98.40
20726;DHT22;10524;48.132;8.518;2023-03-17T15:57:45;14.70;98.80
20726;DHT22;10524;48.132;8.518;2023-03-17T16:00:16;14.70;99.00
20726;DHT22;10524;48.132;8.518;2023-03-17T16:02:42;14.70;99.40
20726;DHT22;10524;48.132;8.518;2023-03-17T16:05:29;14.70;98.70
20726;DHT22;10524;48.132;8.518;2023-03-17T16:07:55;14.70;98.90
20726;DHT22;10524;48.132;8.518;2023-03-17T16:10:30;14.80;99.20
20726;DHT22;10524;48.132;8.518;2023-03-17T16:12:57;14.80;99.30
20726;DHT22;10524;48.132;8.518;2023-03-17T16:15:24;14.90;99.50
20726;DHT22;10524;48.132;8.518;2023-03-17T16:17:53;15.00;99.90
20726;DHT22;10524;48.132;8.518;2023-03-17T16:20:26;15.00;99.90
20726;DHT22;10524;48.132;8.518;2023-03-17T16:22:57;14.90;99.90
20726;DHT22;10524;48.132;8.518;2023-03-17T16:25:28;14.90;99.90
20726;DHT22;10524;48.132;8.518;2023-03-17T16:27:55;14.80;99.90
20726;DHT22;10524;48.132;8.518;2023-03-17T16:30:27;14.60;99.90
20726;DHT22;10524;48.132;8.518;2023-03-17T16:33:00;14.40;99.90
20726;DHT22;10524;48.132;8.518;2023-03-17T16:35:27;14.30;99.90
20726;DHT22;10524;48.132;8.518;2023-03-17T16:37:54;14.00;99.90
20726;DHT22;10524;48.132;8.518;2023-03-17T16:40:36;13.80;99.90
20726;DHT22;10524;48.132;8.518;2023-03-17T16:43:05;13.60;99.90
20726;DHT22;10524;48.132;8.518;2023-03-17T16:45:37;13.50;99.90
20726;DHT22;10524;48.132;8.518;2023-03-17T16:48:04;13.40;99.90
20726;DHT22;10524;48.132;8.518;2023-03-17T16:50:31;13.20;99.90
20726;DHT22;10524;48.132;8.518;2023-03-17T16:52:58;13.10;99.90
20726;DHT22;10524;48.132;8.518;2023-03-17T16:55:26;13.00;99.90
20726;DHT22;10524;48.132;8.518;2023-03-17T16:57:56;12.80;99.90
20726;DHT22;10524;48.132;8.518;2023-03-17T17:00:24;12.70;99.90
20726;DHT22;10524;48.132;8.518;2023-03-17T17:02:52;12.60;99.90
20726;DHT22;10524;48.132;8.518;2023-03-17T17:05:23;12.50;99.90
20726;DHT22;10524;48.132;8.518;2023-03-17T17:07:50;12.50;99.90
20726;DHT22;10524;48.132;8.518;2023-03-17T17:10:17;12.30;99.90
20726;DHT22;10524;48.132;8.518;2023-03-17T17:12:44;12.10;99.90
20726;DHT22;10524;48.132;8.518;2023-03-17T17:15:12;11.90;99.90
20726;DHT22;10524;48.132;8.518;2023-03-17T17:17:40;11.70;99.90
20726;DHT22;10524;48.132;8.518;2023-03-17T17:20:13;11.50;99.90
20726;DHT22;10524;48.132;8.518;2023-03-17T17:22:40;11.30;99.90
20726;DHT22;10524;48.132;8.518;2023-03-17T17:25:06;11.20;99.90